Time;durP1;ratioP1;P1;durP2;ratioP2;P2;SDS_P1;SDS_P2;PMS_P1;PMS_P2;Temp;Humidity;BMP_temperature;BMP_pressure;BME280_temperature;BME280_humidity;BME280_pressure;Samples;Min_cycle;Max_cycle;Signal;HPM_P1;HPM_P2
2022/12/13 00:00:21;;;;;;;9.40;6.10;;;;;;;-3.61;98.69;98047.91;213604;1311;22588;-74
2022/12/13 00:05:23;;;;;;;12.30;6.70;;;;;;;-3.65;98.70;98043.73;213675;1312;26770;-74
2022/12/13 00:10:25;;;;;;;8.60;4.90;;;;;;;-3.66;98.58;98051.16;213797;1312;22994;-74
2022/12/13 00:15:27;;;;;;;7.00;4.30;;;;;;;-3.67;98.47;98053.39;213635;1312;25460;-74
2022/12/13 00:20:29;;;;;;;9.10;4.80;;;;;;;-3.68;98.47;98059.97;213746;1312;22531;-73
2022/12/13 00:25:32;;;;;;;10.70;5.30;;;;;;;-3.68;98.34;98059.23;213698;1312;22578;-73
2022/12/13 00:30:34;;;;;;;8.40;4.70;;;;;;;-3.66;98.37;98062.21;213643;1312;22632;-74
2022/12/13 00:35:41;;;;;;;10.60;5.10;;;;;;;-3.66;98.53;98068.60;213676;1312;22580;-73
2022/12/13 00:40:42;;;;;;;8.90;5.00;;;;;;;-3.65;98.24;98076.42;213497;1312;22489;-74
2022/12/13 00:45:44;;;;;;;7.90;4.30;;;;;;;-3.67;98.15;98082.35;213744;1311;22544;-74
2022/12/13 00:50:46;;;;;;;8.70;4.70;;;;;;;-3.67;98.32;98087.06;213791;1312;22672;-73
2022/12/13 00:55:48;;;;;;;5.10;3.60;;;;;;;-3.66;98.08;98089.95;213820;1307;24351;-73
2022/12/13 01:00:49;;;;;;;7.90;4.50;;;;;;;-3.66;98.18;98089.27;213760;1312;22529;-74
2022/12/13 01:05:51;;;;;;;9.30;4.90;;;;;;;-3.67;98.21;98093.74;213835;1290;22558;-74
2022/12/13 01:11:15;;;;;;;9.90;5.10;;;;;;;-3.68;98.12;98100.37;213638;1312;22743;-74
2022/12/13 01:16:17;;;;;;;10.80;5.20;;;;;;;-3.70;97.96;98098.56;213806;1312;22644;-74
2022/12/13 01:21:20;;;;;;;8.70;4.80;;;;;;;-3.69;97.97;98097.31;213721;1312;25484;-75
2022/12/13 01:26:23;;;;;;;10.40;5.80;;;;;;;-3.68;97.93;98099.32;213731;1312;25914;-74
2022/12/13 01:31:25;;;;;;;12.20;6.10;;;;;;;-3.66;97.99;98099.06;213703;1312;22575;-74
2022/12/13 01:36:27;;;;;;;15.90;7.10;;;;;;;-3.67;97.94;98098.05;213771;1312;23353;-72
2022/12/13 01:41:31;;;;;;;14.00;7.10;;;;;;;-3.66;97.90;98097.45;213778;1312;22521;-74
2022/12/13 01:46:34;;;;;;;15.40;7.90;;;;;;;-3.66;98.05;98091.80;213673;1312;25566;-74
2022/12/13 01:51:54;;;;;;;16.50;8.50;;;;;;;-3.66;98.05;98093.58;213818;1312;24352;-75
2022/12/13 01:56:58;;;;;;;13.90;7.40;;;;;;;-3.68;97.92;98097.51;213708;1293;22487;-75
2022/12/13 02:02:02;;;;;;;19.00;8.50;;;;;;;-3.70;97.64;98095.91;213963;1306;23343;-75
2022/12/13 02:07:05;;;;;;;22.10;10.00;;;;;;;-3.69;97.72;98096.67;213794;1307;24395;-74
2022/12/13 02:12:07;;;;;;;19.10;9.40;;;;;;;-3.69;98.09;98098.52;213840;1312;26348;-75
2022/12/13 02:17:25;;;;;;;15.50;8.20;;;;;;;-3.66;98.16;98102.36;214001;1312;25509;-73
2022/12/13 02:22:55;;;;;;;17.90;8.60;;;;;;;-3.68;97.76;98102.41;213821;1312;25455;-74
2022/12/13 02:28:38;;;;;;;17.40;9.40;;;;;;;-3.70;97.75;98103.77;213810;1312;25316;-75
2022/12/13 02:34:06;;;;;;;18.30;8.40;;;;;;;-3.70;97.92;98104.28;213514;1312;25508;-73
2022/12/13 02:39:24;;;;;;;17.00;8.70;;;;;;;-3.74;97.89;98096.66;213791;1312;22569;-74
2022/12/13 02:44:50;;;;;;;18.00;7.90;;;;;;;-3.77;97.77;98096.33;213882;1312;24390;-75
2022/12/13 02:49:56;;;;;;;16.70;8.60;;;;;;;-3.78;98.03;98092.62;213807;1312;24485;-74
2022/12/13 02:54:58;;;;;;;15.00;8.50;;;;;;;-3.79;97.65;98097.57;213861;1312;22623;-74
2022/12/13 03:00:07;;;;;;;18.30;8.70;;;;;;;-3.81;97.45;98100.10;213793;1311;22523;-74
2022/12/13 03:11:07;;;;;;;13.60;7.10;;;;;;;-3.86;97.40;98103.30;213820;1311;24484;-74
2022/12/13 03:16:23;;;;;;;13.10;6.50;;;;;;;-3.90;97.31;98112.59;213739;1312;25482;-73
2022/12/13 03:21:25;;;;;;;15.90;6.80;;;;;;;-3.92;97.35;98114.63;213798;1312;22666;-74
2022/12/13 03:26:27;;;;;;;14.40;7.50;;;;;;;-3.95;97.07;98116.92;213776;1312;22522;-74
2022/12/13 03:31:28;;;;;;;13.80;6.10;;;;;;;-4.00;96.98;98114.98;213905;1312;24273;-74
2022/12/13 03:36:30;;;;;;;11.50;6.00;;;;;;;-4.05;96.88;98114.60;213694;1312;22595;-74
2022/12/13 03:41:32;;;;;;;10.80;5.60;;;;;;;-4.05;97.04;98118.79;213860;1312;24491;-74
2022/12/13 03:46:34;;;;;;;12.30;6.00;;;;;;;-4.05;97.12;98124.42;213810;1312;22648;-74
2022/12/13 03:51:36;;;;;;;11.10;6.00;;;;;;;-4.06;97.33;98125.71;213816;1312;22958;-74
2022/12/13 03:56:38;;;;;;;14.80;6.70;;;;;;;-4.04;97.32;98124.10;213745;1312;24610;-74
2022/12/13 04:01:39;;;;;;;13.00;5.30;;;;;;;-4.01;97.26;98124.48;213738;1312;22488;-74
2022/12/13 04:06:41;;;;;;;11.70;6.10;;;;;;;-4.00;96.94;98126.54;213670;1307;22529;-73
2022/12/13 04:17:03;;;;;;;;;;;;;;;-4.06;96.65;98127.85;213749;1312;25302;-73
2022/12/13 04:22:05;;;;;;;8.70;4.70;;;;;;;-4.11;96.54;98130.08;213870;1311;22630;-75
2022/12/13 04:27:06;;;;;;;9.00;4.80;;;;;;;-4.15;96.46;98131.31;213774;1312;22969;-73
2022/12/13 04:32:08;;;;;;;12.60;5.10;;;;;;;-4.16;96.36;98130.68;213770;1311;22486;-74
2022/12/13 04:37:29;;;;;;;10.00;5.50;;;;;;;-4.16;96.57;98132.13;213858;1311;22571;-74
2022/12/13 04:42:30;;;;;;;8.00;4.80;;;;;;;-4.15;96.60;98133.66;213764;1307;22717;-73
2022/12/13 04:47:32;;;;;;;11.40;5.70;;;;;;;-4.15;96.58;98130.14;213817;1312;25590;-74
2022/12/13 04:52:34;;;;;;;11.50;5.60;;;;;;;-4.13;96.70;98130.49;213789;1312;22566;-73
2022/12/13 04:57:35;;;;;;;9.80;4.70;;;;;;;-4.12;96.68;98129.22;213722;1300;22615;-74
2022/12/13 05:02:40;;;;;;;7.90;4.40;;;;;;;-4.14;96.34;98136.95;213871;1312;22463;-75
2022/12/13 05:07:43;;;;;;;10.60;5.00;;;;;;;-4.16;96.17;98135.41;213720;1310;24331;-74
2022/12/13 05:12:45;;;;;;;6.50;3.70;;;;;;;-4.20;95.80;98137.21;213831;1312;23476;-74
2022/12/13 05:17:47;;;;;;;6.90;3.50;;;;;;;-4.21;96.05;98143.86;213789;1312;25568;-75
2022/12/13 05:22:48;;;;;;;9.90;4.20;;;;;;;-4.21;96.08;98143.23;213974;1312;22658;-75
2022/12/13 05:27:51;;;;;;;7.10;3.70;;;;;;;-4.21;96.36;98140.56;214047;1312;23938;-74
2022/12/13 05:32:57;;;;;;;5.90;3.80;;;;;;;-4.19;96.40;98141.32;214030;1304;24390;-74
2022/12/13 05:37:59;;;;;;;8.90;5.20;;;;;;;-4.21;96.10;98141.08;213869;1312;23086;-74
2022/12/13 05:43:01;;;;;;;7.20;4.30;;;;;;;-4.23;96.29;98144.23;214039;1312;24479;-74
2022/12/13 05:48:03;;;;;;;8.90;4.60;;;;;;;-4.24;96.09;98142.86;214232;1311;26683;-73
2022/12/13 05:53:06;;;;;;;7.60;4.00;;;;;;;-4.28;96.02;98142.80;214272;1312;24478;-74
2022/12/13 05:58:07;;;;;;;9.90;4.60;;;;;;;-4.35;95.89;98137.92;213995;1311;24369;-74
2022/12/13 06:03:14;;;;;;;10.20;5.50;;;;;;;-4.43;95.93;98145.92;214057;1311;22609;-73
2022/12/13 06:08:16;;;;;;;8.00;4.50;;;;;;;-4.47;96.02;98148.22;214195;1311;22658;-74
2022/12/13 06:13:26;;;;;;;7.70;4.40;;;;;;;-4.49;96.30;98153.14;214004;1301;22474;-74
2022/12/13 06:18:34;;;;;;;9.60;5.20;;;;;;;-4.53;96.33;98159.22;214166;1312;23068;-74
2022/12/13 06:23:36;;;;;;;10.60;5.10;;;;;;;-4.53;96.59;98160.84;213940;1312;22829;-75
2022/12/13 06:28:37;;;;;;;12.00;5.80;;;;;;;-4.49;96.76;98163.19;214100;1312;26931;-74
2022/12/13 06:33:39;;;;;;;14.50;7.30;;;;;;;-4.50;96.56;98170.52;214337;1312;25586;-73
2022/12/13 06:38:41;;;;;;;14.20;7.60;;;;;;;-4.51;96.57;98175.42;214065;1311;22508;-74
2022/12/13 06:43:46;;;;;;;18.30;8.50;;;;;;;-4.52;96.78;98175.48;214377;1287;23238;-73
2022/12/13 06:48:48;;;;;;;17.20;8.10;;;;;;;-4.46;96.95;98180.15;214392;1299;22568;-71
2022/12/13 06:53:51;;;;;;;16.70;7.30;;;;;;;-4.43;96.82;98183.58;214415;1304;25589;-73
2022/12/13 06:58:53;;;;;;;19.00;7.60;;;;;;;-4.43;96.94;98182.73;214387;1285;23257;-73
2022/12/13 07:04:02;;;;;;;22.40;8.50;;;;;;;-4.44;96.55;98187.88;214566;1281;22493;-74
2022/12/13 07:09:04;;;;;;;17.70;8.50;;;;;;;-4.44;96.67;98191.38;214680;1288;138264;-73
2022/12/13 07:14:06;;;;;;;15.20;7.40;;;;;;;-4.39;96.62;98198.73;214623;1283;137626;-74
2022/12/13 07:19:08;;;;;;;13.60;6.50;;;;;;;-4.39;96.23;98198.16;214218;1287;139922;-73
2022/12/13 07:24:25;;;;;;;11.70;6.30;;;;;;;-4.37;96.46;98205.40;214394;1281;138888;-74
2022/12/13 07:29:26;;;;;;;13.50;6.80;;;;;;;-4.35;96.55;98209.27;214038;1280;138365;-73
2022/12/13 07:34:29;;;;;;;15.80;7.30;;;;;;;-4.33;96.43;98219.39;214373;1287;23048;-73
2022/12/13 07:39:31;;;;;;;13.30;6.80;;;;;;;-4.30;96.57;98222.06;214122;1287;139050;-74
2022/12/13 07:44:32;;;;;;;12.10;6.50;;;;;;;-4.30;96.24;98223.96;214213;1288;138138;-74
2022/12/13 07:49:34;;;;;;;13.90;6.90;;;;;;;-4.33;95.79;98225.46;214121;1288;138372;-73
2022/12/13 07:54:36;;;;;;;9.70;5.70;;;;;;;-4.42;95.47;98228.09;214697;1287;138457;-74
2022/12/13 07:59:38;;;;;;;12.40;6.00;;;;;;;-4.48;95.45;98227.30;214207;1297;138513;-75
2022/12/13 08:04:41;;;;;;;15.90;7.10;;;;;;;-4.52;95.57;98229.49;214193;1312;22623;-73
2022/12/13 08:09:43;;;;;;;20.00;9.20;;;;;;;-4.34;96.58;98231.17;215035;1288;137966;-74
2022/12/13 08:14:54;;;;;;;12.70;7.10;;;;;;;-3.73;97.30;98236.16;214226;1297;138342;-74
2022/12/13 08:19:55;;;;;;;17.20;7.60;;;;;;;-3.71;95.59;98237.59;214114;1284;138676;-74
2022/12/13 08:24:57;;;;;;;18.20;8.30;;;;;;;-3.81;95.13;98236.84;214242;1286;138366;-75
2022/12/13 08:29:59;;;;;;;18.70;10.20;;;;;;;-3.78;95.49;98238.39;214065;1289;138296;-74
2022/12/13 08:35:00;;;;;;;18.90;9.20;;;;;;;-3.67;95.54;98240.88;213923;1291;138673;-74
2022/12/13 08:40:05;;;;;;;14.90;8.00;;;;;;;-3.59;95.36;98248.05;214037;1289;22705;-73
2022/12/13 08:45:07;;;;;;;13.40;7.10;;;;;;;-3.46;95.60;98250.04;213970;1291;138263;-74
2022/12/13 08:50:09;;;;;;;18.40;8.10;;;;;;;-3.36;95.30;98253.55;214156;1303;138397;-74
2022/12/13 08:55:12;;;;;;;13.70;6.70;;;;;;;-3.15;94.90;98255.77;214067;1287;138354;-75
2022/12/13 09:00:17;;;;;;;15.20;8.00;;;;;;;-2.97;94.59;98254.36;213721;1286;138400;-74
2022/12/13 09:05:18;;;;;;;21.40;9.00;;;;;;;-2.88;94.49;98254.02;213880;1312;138962;-74
2022/12/13 09:10:35;;;;;;;17.70;9.30;;;;;;;-2.80;94.21;98258.17;215028;1291;22582;-75
2022/12/13 09:15:39;;;;;;;18.40;8.70;;;;;;;-2.76;93.93;98261.30;214234;1296;138282;-75
2022/12/13 09:20:47;;;;;;;18.60;9.00;;;;;;;-2.83;92.23;98263.65;214028;1296;138499;-74
2022/12/13 09:25:59;;;;;;;17.00;8.40;;;;;;;-2.90;92.38;98264.23;214007;1292;138690;-76
2022/12/13 09:31:08;;;;;;;17.40;8.70;;;;;;;-2.88;92.17;98260.30;214425;1287;138622;-76
2022/12/13 09:36:16;;;;;;;17.60;8.10;;;;;;;-2.77;92.26;98259.23;214216;1287;138551;-76
2022/12/13 09:41:28;;;;;;;14.00;7.20;;;;;;;-2.59;92.57;98263.30;214487;1297;138484;-76
2022/12/13 09:46:42;;;;;;;21.80;9.90;;;;;;;-2.59;91.24;98265.55;214432;1294;22551;-76
2022/12/13 09:51:53;;;;;;;16.30;8.70;;;;;;;-2.71;91.18;98262.34;214748;1297;137966;-75
2022/12/13 09:57:30;;;;;;;22.90;9.10;;;;;;;-2.88;90.86;98266.42;214157;1285;138729;-75
2022/12/13 10:02:43;;;;;;;20.90;9.80;;;;;;;-2.89;91.11;98268.45;214414;1286;138309;-76
2022/12/13 10:07:45;;;;;;;19.40;10.70;;;;;;;-2.69;91.59;98269.95;214468;1299;138482;-77
2022/12/13 10:12:54;;;;;;;18.90;9.30;;;;;;;-2.46;91.36;98267.37;214620;1312;138742;-78
2022/12/13 10:17:58;;;;;;;23.40;10.80;;;;;;;-2.12;91.68;98262.80;214301;1287;138228;-80
2022/12/13 10:23:00;;;;;;;24.50;10.00;;;;;;;-1.84;90.78;98254.66;215572;1293;138336;-75
2022/12/13 10:28:30;;;;;;;18.60;7.80;;;;;;;-1.73;89.74;98253.44;214135;1291;24075;-77
2022/12/13 10:33:40;;;;;;;;;;;;;;;-1.45;90.78;98254.17;214216;1287;137929;-77
2022/12/13 10:38:44;;;;;;;18.20;8.60;;;;;;;-1.25;89.96;98250.29;214034;1285;124479;-77
2022/12/13 10:44:07;;;;;;;15.90;7.30;;;;;;;-1.05;90.21;98249.89;213788;1312;138943;-76
2022/12/13 10:49:18;;;;;;;18.30;7.70;;;;;;;-0.98;88.98;98243.75;213986;1285;138321;-77
2022/12/13 10:54:29;;;;;;;12.70;6.60;;;;;;;-0.95;88.77;98240.87;214385;1286;138605;-78
2022/12/13 10:59:49;;;;;;;9.60;5.70;;;;;;;-0.95;88.26;98242.98;214057;1288;138188;-77
2022/12/13 11:04:51;;;;;;;13.10;6.80;;;;;;;-0.90;88.14;98240.42;214135;1287;138112;-77
2022/12/13 11:09:53;;;;;;;17.10;8.20;;;;;;;-0.87;88.22;98235.16;214869;1291;22614;-77
2022/12/13 11:15:05;;;;;;;16.10;7.90;;;;;;;-0.71;88.28;98230.79;214307;1281;138394;-77
2022/12/13 11:20:18;;;;;;;9.90;5.10;;;;;;;-0.56;88.52;98232.34;214305;1291;138352;-77
2022/12/13 11:25:27;;;;;;;14.40;6.70;;;;;;;-0.41;88.28;98225.09;214149;1291;139673;-76
2022/12/13 11:30:59;;;;;;;15.10;6.30;;;;;;;-0.19;88.54;98215.24;214296;1289;140013;-77
2022/12/13 11:36:31;;;;;;;15.10;7.10;;;;;;;-0.19;87.38;98211.97;214801;1312;139888;-76
2022/12/13 11:41:39;;;;;;;13.30;7.50;;;;;;;-0.22;87.69;98217.04;214145;1296;22801;-76
2022/12/13 11:46:45;;;;;;;14.00;7.00;;;;;;;-0.30;86.86;98213.54;214325;1312;25262;-76
2022/12/13 11:51:56;;;;;;;15.00;7.30;;;;;;;-0.46;85.74;98220.99;213748;1312;137913;-76
2022/12/13 11:57:06;;;;;;;13.00;6.60;;;;;;;-0.63;85.72;98223.67;213884;1312;138699;-76
2022/12/13 12:02:31;;;;;;;13.50;6.60;;;;;;;-0.65;86.47;98220.56;215369;1304;138395;-77
2022/12/13 12:07:38;;;;;;;17.40;7.50;;;;;;;-0.58;86.46;98222.35;214142;1312;138291;-77
2022/12/13 12:13:22;;;;;;;11.00;5.80;;;;;;;-0.66;86.22;98220.33;214260;1297;138265;-75
2022/12/13 12:18:24;;;;;;;14.50;7.00;;;;;;;-0.71;85.19;98223.39;214846;1299;138376;-76
2022/12/13 12:23:57;;;;;;;13.40;6.90;;;;;;;-0.75;85.96;98215.52;214235;1287;24455;-75
2022/12/13 12:29:27;;;;;;;12.40;6.80;;;;;;;-0.72;85.17;98223.68;214408;1297;22517;-75
2022/12/13 12:35:03;;;;;;;16.70;8.30;;;;;;;-0.86;85.17;98222.52;214734;1299;138470;-76
2022/12/13 12:40:17;;;;;;;19.20;9.30;;;;;;;-0.79;85.64;98217.20;214234;1296;138254;-76
2022/12/13 12:45:59;;;;;;;23.10;10.30;;;;;;;-0.72;85.72;98209.73;214170;1312;137979;-76
2022/12/13 12:51:09;;;;;;;29.60;13.60;;;;;;;-0.72;85.63;98207.16;214187;1290;138382;-75
2022/12/13 12:56:18;;;;;;;22.00;10.60;;;;;;;-0.80;86.10;98210.13;214076;1298;138483;-76
2022/12/13 13:01:40;;;;;;;23.90;11.80;;;;;;;-0.96;85.67;98212.66;214209;1313;138617;-75
2022/12/13 13:06:48;;;;;;;27.50;13.90;;;;;;;-1.19;85.91;98215.31;214107;1312;138454;-75
2022/12/13 13:11:51;;;;;;;27.50;12.30;;;;;;;-1.26;86.26;98213.95;214146;1285;138317;-75
2022/12/13 13:17:19;;;;;;;25.40;11.60;;;;;;;-1.28;86.91;98220.95;214400;1312;23983;-76
2022/12/13 13:22:30;;;;;;;22.20;11.50;;;;;;;-1.44;86.12;98226.02;214219;1312;138019;-77
2022/12/13 13:27:41;;;;;;;30.20;13.00;;;;;;;-1.57;86.09;98228.55;214171;1291;138413;-76
2022/12/13 13:32:43;;;;;;;25.50;12.10;;;;;;;-1.63;85.84;98236.38;214344;1313;138881;-78
2022/12/13 13:37:47;;;;;;;25.50;12.20;;;;;;;-1.66;86.19;98235.57;214157;1299;138474;-80
2022/12/13 13:43:04;;;;;;;15.70;8.30;;;;;;;-1.74;85.46;98240.56;213998;1292;138435;-74
2022/12/13 13:48:35;;;;;;;21.00;9.80;;;;;;;-2.02;84.87;98237.57;214202;1290;138310;-78
2022/12/13 13:54:02;;;;;;;18.90;10.00;;;;;;;-2.24;84.99;98241.29;214258;1289;23221;-75
2022/12/13 13:59:35;;;;;;;16.30;7.80;;;;;;;-2.39;85.16;98247.25;214049;1289;25535;-76
2022/12/13 14:05:17;;;;;;;17.10;7.90;;;;;;;-2.52;84.87;98258.11;214127;1283;138274;-76
2022/12/13 14:10:31;;;;;;;19.10;9.60;;;;;;;-2.58;85.28;98257.31;214016;1283;138445;-77
2022/12/13 14:16:08;;;;;;;14.90;6.50;;;;;;;-2.63;85.35;98266.31;214067;1283;138436;-76
2022/12/13 14:21:25;;;;;;;18.40;9.10;;;;;;;-2.86;84.97;98272.70;214028;1280;138905;-78
2022/12/13 14:27:15;;;;;;;22.90;10.20;;;;;;;-3.06;85.06;98273.42;214147;1283;139053;-78
2022/12/13 14:32:30;;;;;;;23.70;10.30;;;;;;;-3.34;84.92;98270.43;213300;1290;138825;-77
2022/12/13 14:37:37;;;;;;;25.90;11.20;;;;;;;-3.63;85.06;98275.27;214778;1284;138860;-76
2022/12/13 14:42:40;;;;;;;27.20;12.40;;;;;;;-3.90;85.57;98276.65;214544;1287;140096;-77
2022/12/13 14:47:49;;;;;;;23.70;10.90;;;;;;;-4.16;86.10;98277.09;214585;1287;22484;-78
2022/12/13 14:52:52;;;;;;;26.30;11.30;;;;;;;-4.34;86.41;98275.00;214243;1287;24271;-78
2022/12/13 14:57:56;;;;;;;24.70;11.00;;;;;;;-4.54;86.44;98280.89;213960;1291;139130;-76
2022/12/13 15:03:00;;;;;;;24.90;11.60;;;;;;;-4.74;86.67;98286.24;213635;1281;22840;-77
2022/12/13 15:08:08;;;;;;;20.50;9.80;;;;;;;-4.82;87.18;98287.62;214104;1312;23081;-77
2022/12/13 15:13:21;;;;;;;;;;;;;;;-4.82;87.33;98287.30;213875;1312;23404;-78
2022/12/13 15:18:24;;;;;;;32.30;12.40;;;;;;;-4.80;87.79;98290.58;213866;1312;22514;-78
2022/12/13 15:23:41;;;;;;;22.20;9.80;;;;;;;-4.82;87.74;98292.80;213768;1312;22620;-78
2022/12/13 15:29:13;;;;;;;16.30;8.50;;;;;;;-4.87;87.91;98297.34;213787;1312;22567;-77
2022/12/13 15:34:36;;;;;;;23.20;10.00;;;;;;;-4.96;88.07;98302.08;213912;1312;25364;-78
2022/12/13 15:39:40;;;;;;;24.20;10.70;;;;;;;-5.11;88.10;98300.00;214141;1312;24163;-77
2022/12/13 15:44:53;;;;;;;30.20;11.40;;;;;;;-5.20;88.51;98297.94;214165;1306;24284;-78
2022/12/13 15:49:58;;;;;;;25.50;11.30;;;;;;;-5.26;88.75;98290.90;214139;1311;22553;-78
2022/12/13 15:55:05;;;;;;;29.50;12.10;;;;;;;-5.29;88.91;98293.61;213960;1307;24893;-78
2022/12/13 16:00:19;;;;;;;24.20;10.90;;;;;;;-5.26;89.20;98294.91;213939;1312;22518;-77
2022/12/13 16:05:36;;;;;;;24.30;11.20;;;;;;;-5.19;89.33;98296.05;213895;1312;23508;-78
2022/12/13 16:10:37;;;;;;;29.90;12.90;;;;;;;-5.16;89.23;98295.36;213672;1311;24271;-77
2022/12/13 16:16:19;;;;;;;31.70;13.50;;;;;;;-5.13;89.21;98295.21;213935;1312;24391;-78
2022/12/13 16:21:28;;;;;;;40.40;16.60;;;;;;;-5.09;89.26;98288.59;213875;1312;22548;-77
2022/12/13 16:26:32;;;;;;;35.20;14.70;;;;;;;-5.05;89.34;98289.20;213823;1300;22593;-77
2022/12/13 16:31:34;;;;;;;29.90;13.80;;;;;;;-5.02;89.46;98289.37;213819;1312;22614;-77
2022/12/13 16:36:37;;;;;;;23.80;13.10;;;;;;;-5.02;89.53;98289.73;213801;1312;22596;-77
2022/12/13 16:41:44;;;;;;;32.30;15.70;;;;;;;-5.03;89.45;98293.98;214163;1311;24809;-79
2022/12/13 16:46:46;;;;;;;37.70;17.70;;;;;;;-5.05;89.63;98294.95;213919;1312;22697;-77
2022/12/13 16:52:08;;;;;;;46.60;18.50;;;;;;;-5.03;89.83;98294.50;214047;1312;22516;-77
2022/12/13 16:57:09;;;;;;;38.80;17.00;;;;;;;-5.04;89.74;98296.02;213955;1312;22503;-77
2022/12/13 17:02:16;;;;;;;43.80;18.30;;;;;;;-5.19;89.50;98286.05;213939;1312;22545;-77
2022/12/13 17:07:18;;;;;;;44.30;18.40;;;;;;;-5.25;89.71;98300.65;213745;1312;22530;-76
2022/12/13 17:12:19;;;;;;;49.00;20.00;;;;;;;-5.38;89.91;98309.10;213651;1312;22737;-77
2022/12/13 17:17:21;;;;;;;46.50;20.70;;;;;;;-5.52;89.98;98303.95;213923;1312;22533;-77
2022/12/13 17:22:23;;;;;;;49.10;21.30;;;;;;;-5.67;90.16;98309.97;213956;1312;22622;-78
2022/12/13 17:27:25;;;;;;;49.70;23.20;;;;;;;-5.80;90.48;98309.94;213635;1309;24416;-77
2022/12/13 17:32:28;;;;;;;46.40;19.40;;;;;;;-5.94;90.51;98317.03;213639;1310;23122;-77
2022/12/13 17:37:31;;;;;;;46.60;20.40;;;;;;;-6.10;90.52;98322.77;213906;1311;22747;-77
2022/12/13 17:42:33;;;;;;;42.10;17.00;;;;;;;-6.29;90.57;98329.72;213668;1312;25471;-77
2022/12/13 17:47:37;;;;;;;51.70;20.40;;;;;;;-6.49;90.58;98333.95;213972;1312;24056;-76
2022/12/13 17:52:39;;;;;;;46.70;18.90;;;;;;;-6.62;90.84;98339.90;213915;1311;23144;-78
2022/12/13 17:57:41;;;;;;;50.70;19.90;;;;;;;-6.77;90.89;98338.73;213813;1312;22712;-77
2022/12/13 18:02:43;;;;;;;49.20;21.00;;;;;;;-6.88;91.08;98340.07;213886;1312;22520;-77
2022/12/13 18:07:56;;;;;;;53.40;22.10;;;;;;;-6.98;91.19;98342.21;213980;1312;22580;-76
2022/12/13 18:12:59;;;;;;;56.60;24.00;;;;;;;-7.04;91.49;98344.48;213922;1298;22633;-78
2022/12/13 18:18:02;;;;;;;65.10;25.60;;;;;;;-7.07;91.79;98345.94;213745;1307;22589;-77
2022/12/13 18:23:14;;;;;;;59.70;24.50;;;;;;;-7.07;92.02;98342.13;213773;1303;22590;-77
2022/12/13 18:28:17;;;;;;;52.00;21.80;;;;;;;-7.09;91.92;98340.52;213979;1312;24367;-77
2022/12/13 18:33:19;;;;;;;69.60;28.80;;;;;;;-7.14;92.08;98339.39;213825;1311;22645;-77
2022/12/13 18:38:22;;;;;;;76.70;31.50;;;;;;;-7.16;92.23;98340.48;213552;1312;24258;-77
2022/12/13 18:43:25;;;;;;;77.30;30.30;;;;;;;-7.21;92.32;98342.67;213743;1312;22697;-76
2022/12/13 18:48:30;;;;;;;85.20;32.90;;;;;;;-7.27;92.42;98343.89;213593;1310;22584;-77
2022/12/13 18:53:33;;;;;;;85.20;33.10;;;;;;;-7.33;92.37;98338.21;213883;1312;22597;-76
2022/12/13 18:58:38;;;;;;;89.00;33.30;;;;;;;-7.38;92.55;98327.70;213696;1312;24353;-77
2022/12/13 19:03:46;;;;;;;84.00;30.90;;;;;;;-7.45;92.47;98328.84;213994;1312;22608;-76
2022/12/13 19:08:50;;;;;;;88.70;33.50;;;;;;;-7.54;92.36;98324.37;213852;1312;24494;-76
2022/12/13 19:13:52;;;;;;;81.80;31.80;;;;;;;-7.66;92.04;98325.77;213927;1312;26628;-77
2022/12/13 19:18:56;;;;;;;99.50;32.60;;;;;;;-7.81;91.74;98328.50;213617;1309;22767;-75
2022/12/13 19:23:59;;;;;;;86.50;33.10;;;;;;;-7.95;91.60;98328.67;213668;1312;25447;-76
2022/12/13 19:29:02;;;;;;;86.60;31.60;;;;;;;-8.09;91.80;98328.84;213810;1312;22655;-76
2022/12/13 19:34:04;;;;;;;79.20;30.50;;;;;;;-8.20;91.71;98334.64;213769;1312;22777;-76
2022/12/13 19:39:06;;;;;;;85.20;31.20;;;;;;;-8.31;91.93;98338.61;213709;1312;25441;-76
2022/12/13 19:44:08;;;;;;;94.90;36.90;;;;;;;-8.37;92.29;98339.08;213721;1312;23381;-76
2022/12/13 19:49:12;;;;;;;120.50;44.20;;;;;;;-8.39;92.60;98343.92;213785;1312;21880;-76
2022/12/13 19:54:14;;;;;;;172.10;64.40;;;;;;;-8.39;92.90;98343.48;213662;1311;22839;-78
2022/12/13 19:59:16;;;;;;;111.80;38.40;;;;;;;-8.44;92.70;98342.07;213855;1312;25348;-76
2022/12/13 20:04:19;;;;;;;73.00;27.60;;;;;;;-8.56;91.85;98346.56;213676;1312;22655;-77
2022/12/13 20:09:21;;;;;;;71.30;26.60;;;;;;;-8.79;90.81;98348.96;213722;1312;25256;-76
2022/12/13 20:14:24;;;;;;;82.70;29.40;;;;;;;-9.00;90.39;98353.47;213721;1310;22805;-75
2022/12/13 20:19:26;;;;;;;72.40;29.00;;;;;;;-9.14;90.60;98352.98;213819;1312;21941;-76
2022/12/13 20:24:28;;;;;;;71.50;26.40;;;;;;;-9.25;90.92;98364.67;213669;1302;22622;-76
2022/12/13 20:29:30;;;;;;;88.90;32.20;;;;;;;-9.34;90.78;98367.23;213883;1312;22021;-76
2022/12/13 20:34:33;;;;;;;93.10;36.50;;;;;;;-9.38;91.24;98362.55;213696;1312;23307;-76
2022/12/13 20:39:35;;;;;;;107.90;38.30;;;;;;;-9.42;91.17;98357.13;213870;1312;23933;-76
2022/12/13 20:44:37;;;;;;;117.00;42.60;;;;;;;-9.50;91.24;98353.20;213726;1311;22512;-75
2022/12/13 20:49:39;;;;;;;150.30;52.90;;;;;;;-9.54;91.08;98353.52;213882;1312;22502;-75
2022/12/13 20:54:42;;;;;;;148.70;61.80;;;;;;;-9.56;91.13;98350.13;213666;1312;22619;-74
2022/12/13 20:59:43;;;;;;;172.30;66.30;;;;;;;-9.55;91.37;98339.98;213829;1312;25311;-76
2022/12/13 21:04:45;;;;;;;181.40;68.70;;;;;;;-9.46;91.67;98332.89;213721;1312;24332;-77
2022/12/13 21:09:47;;;;;;;141.40;54.80;;;;;;;-9.28;92.30;98326.98;213862;1312;22650;-77
2022/12/13 21:14:49;;;;;;;176.20;70.10;;;;;;;-9.12;92.52;98329.57;213792;1312;22713;-77
2022/12/13 21:19:50;;;;;;;188.70;72.10;;;;;;;-9.07;92.12;98335.77;213810;1312;22496;-75
2022/12/13 21:24:54;;;;;;;170.60;63.20;;;;;;;-8.94;92.51;98337.37;213923;1312;22501;-74
2022/12/13 21:29:56;;;;;;;164.10;66.20;;;;;;;-8.75;93.11;98336.24;213649;1312;22624;-76
2022/12/13 21:34:57;;;;;;;176.70;65.70;;;;;;;-8.53;93.39;98333.31;213779;1312;22646;-77
2022/12/13 21:39:59;;;;;;;219.20;80.80;;;;;;;-8.36;93.39;98329.52;213610;1312;22550;-76
2022/12/13 21:45:01;;;;;;;255.90;91.80;;;;;;;-8.23;93.34;98330.20;213643;1312;22542;-76
2022/12/13 21:50:03;;;;;;;200.20;79.40;;;;;;;-8.27;92.83;98332.14;213793;1303;22938;-76
2022/12/13 21:55:07;;;;;;;206.50;82.30;;;;;;;-8.34;92.80;98331.45;213788;1312;25430;-76
2022/12/13 22:00:29;;;;;;;164.30;58.40;;;;;;;-8.44;92.71;98326.99;213930;1312;22789;-76
2022/12/13 22:05:30;;;;;;;183.00;69.40;;;;;;;-8.52;92.74;98326.86;213746;1312;22727;-75
2022/12/13 22:10:32;;;;;;;173.90;64.30;;;;;;;-8.62;92.47;98328.55;213795;1312;22644;-75
2022/12/13 22:15:34;;;;;;;173.90;64.40;;;;;;;-8.72;92.29;98326.81;213706;1312;22592;-76
2022/12/13 22:20:36;;;;;;;140.40;54.70;;;;;;;-8.84;92.19;98328.34;213690;1312;22453;-76
2022/12/13 22:25:38;;;;;;;139.70;51.40;;;;;;;-8.99;92.07;98327.70;213699;1308;22796;-75
2022/12/13 22:30:40;;;;;;;159.90;63.30;;;;;;;-9.05;92.20;98332.74;213832;1312;24341;-76
2022/12/13 22:35:42;;;;;;;190.90;71.80;;;;;;;-9.10;92.29;98331.61;213729;1313;22481;-76
2022/12/13 22:40:44;;;;;;;187.40;68.70;;;;;;;-9.16;92.37;98327.71;213557;1313;99220;-76
2022/12/13 22:45:45;;;;;;;176.30;71.20;;;;;;;-9.22;92.35;98328.60;213651;1313;22597;-76
2022/12/13 22:50:47;;;;;;;191.30;72.00;;;;;;;-9.31;92.34;98324.02;213791;1307;23813;-76
2022/12/13 22:55:50;;;;;;;165.70;65.30;;;;;;;-9.41;92.04;98311.33;213630;1309;22559;-76
2022/12/13 23:00:51;;;;;;;146.60;56.90;;;;;;;-9.53;91.89;98311.39;213708;1313;22685;-77
2022/12/13 23:05:53;;;;;;;168.90;66.30;;;;;;;-9.64;91.82;98308.31;213722;1313;22619;-77
2022/12/13 23:16:20;;;;;;;213.20;84.00;;;;;;;-9.67;92.25;98288.27;213687;1307;22564;-75
2022/12/13 23:21:23;;;;;;;215.90;84.10;;;;;;;-9.54;92.77;98279.66;213405;1313;22554;-75
2022/12/13 23:26:28;;;;;;;210.10;78.00;;;;;;;-9.37;92.91;98277.80;213526;1312;25305;-76
2022/12/13 23:31:35;;;;;;;194.40;72.30;;;;;;;-9.24;92.89;98272.53;213878;1312;22672;-78
2022/12/13 23:36:37;;;;;;;158.60;58.30;;;;;;;-9.12;92.96;98266.93;213557;1312;22550;-74